Time;durP1;ratioP1;P1;durP2;ratioP2;P2;SDS_P1;SDS_P2;PMS_P1;PMS_P2;Temp;Humidity;BMP_temperature;BMP_pressure;BME280_temperature;BME280_humidity;BME280_pressure;Samples;Min_cycle;Max_cycle;Signal;HPM_P1;HPM_P2
2024/01/17 00:00:23;;;;;;;13.70;6.78;;;9.40;61.80;;;;;;6246534;28;20009;-73
2024/01/17 00:03:24;;;;;;;12.38;5.93;;;9.30;62.10;;;;;;6278540;28;20107;-72
2024/01/17 00:06:25;;;;;;;9.57;4.32;;;9.30;62.40;;;;;;6244498;28;20370;-71
2024/01/17 00:09:27;;;;;;;13.98;6.45;;;9.20;62.70;;;;;;6260140;28;20087;-72
2024/01/17 00:12:29;;;;;;;15.23;5.53;;;9.20;63.00;;;;;;6248915;28;20123;-72
2024/01/17 00:15:30;;;;;;;12.43;5.32;;;9.20;63.10;;;;;;6244977;28;20025;-71
2024/01/17 00:18:31;;;;;;;12.38;5.40;;;9.20;63.10;;;;;;6244362;28;20082;-72
2024/01/17 00:21:32;;;;;;;11.23;6.15;;;9.20;63.10;;;;;;6263327;28;20110;-72
2024/01/17 00:24:33;;;;;;;7.82;2.95;;;9.30;63.10;;;;;;6283660;28;20056;-71
2024/01/17 00:27:36;;;;;;;12.80;5.22;;;9.20;63.00;;;;;;6252111;28;20036;-74
2024/01/17 00:30:39;;;;;;;14.38;5.85;;;9.20;63.10;;;;;;6239110;28;21449;-72
2024/01/17 00:33:40;;;;;;;12.05;3.85;;;9.20;63.30;;;;;;6245425;28;20053;-72
2024/01/17 00:36:41;;;;;;;4.93;2.88;;;9.20;63.20;;;;;;6270757;28;20024;-71
2024/01/17 00:39:42;;;;;;;12.32;4.60;;;9.30;63.30;;;;;;6276850;28;20041;-72
2024/01/17 00:42:44;;;;;;;13.55;5.45;;;9.30;63.30;;;;;;6232886;28;20076;-70
2024/01/17 00:45:45;;;;;;;15.02;5.88;;;9.30;63.10;;;;;;6248852;28;20040;-72
2024/01/17 00:48:46;;;;;;;9.93;4.75;;;9.40;63.00;;;;;;6242705;28;20025;-72
2024/01/17 00:51:47;;;;;;;11.65;5.63;;;9.40;62.80;;;;;;6243085;28;20180;-72
2024/01/17 00:54:48;;;;;;;10.20;4.75;;;9.50;62.70;;;;;;6245606;28;20033;-72
2024/01/17 00:57:50;;;;;;;10.57;5.25;;;9.40;62.80;;;;;;6255264;28;20043;-70
2024/01/17 01:00:51;;;;;;;10.27;4.68;;;9.50;62.80;;;;;;6262127;28;20032;-72
2024/01/17 01:03:52;;;;;;;13.50;6.63;;;9.50;62.70;;;;;;6243765;28;20041;-72
2024/01/17 01:06:53;;;;;;;15.25;5.53;;;9.50;62.80;;;;;;6253535;28;20039;-72
2024/01/17 01:09:54;;;;;;;8.60;3.47;;;9.60;62.80;;;;;;6249869;28;20017;-70
2024/01/17 01:12:55;;;;;;;11.80;5.70;;;9.70;62.90;;;;;;6246249;28;20141;-72
2024/01/17 01:15:55;;;;;;;9.93;4.95;;;9.70;62.80;;;;;;6246048;28;20036;-72
2024/01/17 01:18:56;;;;;;;15.40;5.68;;;9.70;62.60;;;;;;6244921;28;20075;-71
2024/01/17 01:21:57;;;;;;;10.52;5.18;;;9.80;62.60;;;;;;6255104;28;20025;-71
2024/01/17 01:24:58;;;;;;;10.35;5.20;;;9.80;62.50;;;;;;6238712;28;20085;-72
2024/01/17 01:27:59;;;;;;;14.40;5.57;;;9.80;62.50;;;;;;6244388;28;20032;-72
2024/01/17 01:31:00;;;;;;;8.07;5.07;;;9.80;62.40;;;;;;6236574;28;20060;-72
2024/01/17 01:34:00;;;;;;;9.98;5.05;;;9.80;62.30;;;;;;6276613;28;20033;-72
2024/01/17 01:37:02;;;;;;;7.18;4.25;;;9.90;62.40;;;;;;6246933;28;20032;-71
2024/01/17 01:40:03;;;;;;;8.88;3.95;;;9.90;62.50;;;;;;6231407;28;20013;-72
2024/01/17 01:43:20;;;;;;;5.82;3.78;;;10.00;62.60;;;;;;6240862;28;20045;-71
2024/01/17 01:46:29;;;;;;;5.72;3.13;;;10.10;62.40;;;;;;6276234;28;20029;-72
2024/01/17 01:49:30;;;;;;;5.63;3.28;;;10.20;62.40;;;;;;6229703;28;20025;-71
2024/01/17 01:52:34;;;;;;;5.50;1.52;;;10.30;62.30;;;;;;6245275;28;20449;-72
2024/01/17 01:55:34;;;;;;;2.30;1.63;;;10.50;62.10;;;;;;6242809;28;20036;-73
2024/01/17 01:58:36;;;;;;;3.05;1.73;;;10.80;61.80;;;;;;6246245;28;20432;-73
2024/01/17 02:01:37;;;;;;;4.65;1.40;;;11.10;61.20;;;;;;6241099;28;20043;-73
2024/01/17 02:04:40;;;;;;;1.17;0.80;;;11.40;60.50;;;;;;6240940;28;20154;-72
2024/01/17 02:07:42;;;;;;;1.77;1.05;;;11.80;59.80;;;;;;6246409;28;20029;-71
2024/01/17 02:10:42;;;;;;;1.33;0.80;;;12.10;59.10;;;;;;6243355;28;20032;-70
2024/01/17 02:13:47;;;;;;;1.52;1.13;;;12.40;58.50;;;;;;6240000;28;20045;-71
2024/01/17 02:16:49;;;;;;;2.38;1.38;;;12.70;57.30;;;;;;6276172;28;20032;-73
2024/01/17 02:19:50;;;;;;;2.15;1.10;;;13.00;57.00;;;;;;6250595;28;20167;-71
2024/01/17 02:22:51;;;;;;;2.05;1.67;;;13.10;56.80;;;;;;6252887;28;20024;-72
2024/01/17 02:25:55;;;;;;;2.15;1.05;;;13.30;56.00;;;;;;6235697;28;20032;-72
2024/01/17 02:28:56;;;;;;;2.28;1.15;;;13.40;55.70;;;;;;6258030;28;20429;-72
2024/01/17 02:31:57;;;;;;;2.25;1.17;;;13.40;55.70;;;;;;6240509;28;20025;-73
2024/01/17 02:34:58;;;;;;;1.08;0.90;;;13.60;55.20;;;;;;6245527;28;20511;-72
2024/01/17 02:38:00;;;;;;;0.70;0.60;;;13.70;55.00;;;;;;6247075;28;20071;-72
2024/01/17 02:41:02;;;;;;;2.15;0.68;;;13.80;54.80;;;;;;6241137;28;20073;-72
2024/01/17 02:44:02;;;;;;;0.82;0.70;;;13.90;54.60;;;;;;6250384;28;20598;-72
2024/01/17 02:47:03;;;;;;;0.77;0.73;;;14.00;54.50;;;;;;6241895;28;20069;-72
2024/01/17 02:50:06;;;;;;;1.85;0.65;;;14.20;54.30;;;;;;6232774;28;20021;-72
2024/01/17 02:53:07;;;;;;;1.63;0.70;;;14.30;54.20;;;;;;6254683;28;20064;-72
2024/01/17 02:56:08;;;;;;;4.40;1.63;;;14.40;53.30;;;;;;6251096;28;20029;-72
2024/01/17 02:59:10;;;;;;;2.85;1.50;;;14.40;53.00;;;;;;6250032;28;20465;-72
2024/01/17 03:02:13;;;;;;;3.25;1.23;;;14.40;52.00;;;;;;6250838;28;20371;-71
2024/01/17 03:05:14;;;;;;;2.58;1.80;;;14.20;52.60;;;;;;6233174;28;20466;-72
2024/01/17 03:08:15;;;;;;;2.25;1.27;;;14.10;52.70;;;;;;6252144;28;20147;-73
2024/01/17 03:11:16;;;;;;;2.45;1.20;;;14.00;52.20;;;;;;6247625;28;20029;-72
2024/01/17 03:14:16;;;;;;;3.17;1.50;;;13.90;52.70;;;;;;6275536;28;20056;-71
2024/01/17 03:17:17;;;;;;;5.15;2.10;;;14.00;53.00;;;;;;6231744;28;20401;-74
2024/01/17 03:20:19;;;;;;;5.35;1.67;;;13.90;52.90;;;;;;6250726;28;20026;-71
2024/01/17 03:23:21;;;;;;;3.42;2.20;;;13.90;53.20;;;;;;6253809;28;20133;-72
2024/01/17 03:26:22;;;;;;;9.23;2.67;;;13.80;53.00;;;;;;6234529;28;20024;-72
2024/01/17 03:29:24;;;;;;;8.70;2.65;;;13.60;53.90;;;;;;6274164;28;20021;-72
2024/01/17 03:32:25;;;;;;;6.20;2.67;;;13.50;53.70;;;;;;6245614;28;20075;-73
2024/01/17 03:35:25;;;;;;;7.65;2.50;;;13.40;54.10;;;;;;6245178;28;20041;-71
2024/01/17 03:38:26;;;;;;;2.97;2.05;;;13.30;54.50;;;;;;6287960;28;20103;-72
2024/01/17 03:41:27;;;;;;;2.30;1.45;;;13.20;54.90;;;;;;6242629;28;20548;-71
2024/01/17 03:44:30;;;;;;;3.63;1.70;;;13.10;55.30;;;;;;6246704;28;20457;-72
2024/01/17 03:47:30;;;;;;;4.38;2.33;;;13.10;55.80;;;;;;6249507;28;20021;-71
2024/01/17 03:50:32;;;;;;;4.80;1.98;;;13.00;56.00;;;;;;6243248;28;20025;-72
2024/01/17 03:53:33;;;;;;;2.85;1.67;;;13.00;56.30;;;;;;6244627;28;20390;-71
2024/01/17 03:56:35;;;;;;;6.47;1.63;;;13.00;56.80;;;;;;6271821;28;20112;-70
2024/01/17 03:59:36;;;;;;;6.30;2.97;;;13.00;57.20;;;;;;6252200;28;20017;-71
2024/01/17 04:02:37;;;;;;;6.20;3.58;;;13.00;57.60;;;;;;6241528;28;20056;-70
2024/01/17 04:05:38;;;;;;;8.73;4.28;;;13.00;57.70;;;;;;6241901;28;20078;-71
2024/01/17 04:08:43;;;;;;;8.10;4.63;;;12.90;57.90;;;;;;6247247;28;20384;-73
2024/01/17 04:11:45;;;;;;;11.00;3.72;;;12.80;58.20;;;;;;6247987;28;20064;-72
2024/01/17 04:14:46;;;;;;;13.75;6.18;;;12.60;58.50;;;;;;6244084;28;20075;-71
2024/01/17 04:17:47;;;;;;;12.10;6.25;;;12.40;59.30;;;;;;6242869;28;20078;-72
2024/01/17 04:20:48;;;;;;;10.20;4.88;;;12.20;59.70;;;;;;6255655;28;20478;-71
2024/01/17 04:23:49;;;;;;;13.15;6.15;;;12.10;60.00;;;;;;6240676;28;20480;-72
2024/01/17 04:26:55;;;;;;;9.75;4.68;;;12.00;60.50;;;;;;6260177;28;20530;-72
2024/01/17 04:29:55;;;;;;;6.82;3.72;;;11.90;61.10;;;;;;6259044;28;20029;-72
2024/01/17 04:32:56;;;;;;;5.78;2.85;;;11.90;61.60;;;;;;6254696;28;20029;-71
2024/01/17 04:35:57;;;;;;;9.85;4.65;;;11.80;61.80;;;;;;6241267;28;20029;-73
2024/01/17 04:39:00;;;;;;;6.35;2.83;;;11.80;61.90;;;;;;6242701;28;20080;-71
2024/01/17 04:42:02;;;;;;;4.82;2.67;;;11.80;62.00;;;;;;6279543;28;20018;-71
2024/01/17 04:45:04;;;;;;;6.78;3.92;;;11.80;62.10;;;;;;6256971;28;20111;-72
2024/01/17 04:48:07;;;;;;;6.68;3.30;;;11.80;62.20;;;;;;6246424;28;20048;-70
2024/01/17 04:51:10;;;;;;;6.22;3.50;;;11.80;62.60;;;;;;6245095;28;20032;-71
2024/01/17 04:54:10;;;;;;;5.53;2.83;;;11.70;62.80;;;;;;6251620;28;20033;-71
2024/01/17 04:57:12;;;;;;;8.02;2.30;;;11.60;63.00;;;;;;6262201;28;20021;-71
2024/01/17 05:00:15;;;;;;;3.85;2.17;;;11.60;63.40;;;;;;6248265;28;20025;-73
2024/01/17 05:03:15;;;;;;;8.88;2.55;;;11.50;63.70;;;;;;6245424;28;20122;-73
2024/01/17 05:06:16;;;;;;;6.25;2.05;;;11.50;63.90;;;;;;6244992;28;20286;-72
2024/01/17 05:09:18;;;;;;;4.22;2.42;;;11.50;64.10;;;;;;6243494;28;20112;-71
2024/01/17 05:12:20;;;;;;;4.53;2.20;;;11.40;64.40;;;;;;6245690;28;20024;-72
2024/01/17 05:15:21;;;;;;;4.90;2.25;;;11.40;64.80;;;;;;6245541;28;20435;-72
2024/01/17 05:18:22;;;;;;;4.55;2.22;;;11.30;65.10;;;;;;6248339;28;20092;-72
2024/01/17 05:21:23;;;;;;;4.72;2.85;;;11.20;65.20;;;;;;6247660;28;20023;-71
2024/01/17 05:24:25;;;;;;;5.10;2.83;;;11.20;65.60;;;;;;6276544;28;20104;-70
2024/01/17 05:27:26;;;;;;;7.20;2.67;;;11.00;65.90;;;;;;6241535;28;20059;-71
2024/01/17 05:30:30;;;;;;;7.10;3.70;;;11.00;66.60;;;;;;6244282;28;20057;-69
2024/01/17 05:33:31;;;;;;;6.03;2.80;;;10.90;66.70;;;;;;6238923;28;20021;-72
2024/01/17 05:36:32;;;;;;;7.70;3.58;;;10.80;66.90;;;;;;6244447;28;20030;-72
2024/01/17 05:39:33;;;;;;;6.90;3.08;;;10.80;67.20;;;;;;6245489;28;20017;-72
2024/01/17 05:42:37;;;;;;;7.65;2.67;;;10.70;67.80;;;;;;6247232;28;20128;-71
2024/01/17 05:45:38;;;;;;;8.35;2.88;;;10.60;68.00;;;;;;6249575;28;20017;-70
2024/01/17 05:48:39;;;;;;;3.47;2.25;;;10.60;68.40;;;;;;6244211;28;20028;-72
2024/01/17 05:51:40;;;;;;;7.53;2.53;;;10.60;68.70;;;;;;6248496;28;20024;-75
2024/01/17 05:54:41;;;;;;;6.25;3.35;;;10.60;69.10;;;;;;6245760;28;20025;-72
2024/01/17 05:57:42;;;;;;;8.75;2.40;;;10.60;69.30;;;;;;6246938;28;20036;-72
2024/01/17 06:00:43;;;;;;;7.68;2.38;;;10.60;69.30;;;;;;6256317;28;20031;-73
2024/01/17 06:03:45;;;;;;;5.50;2.67;;;10.60;69.20;;;;;;6249651;28;20096;-72
2024/01/17 06:06:46;;;;;;;15.05;3.83;;;10.70;69.40;;;;;;6245189;28;20054;-72
2024/01/17 06:09:47;;;;;;;4.40;2.45;;;10.70;69.50;;;;;;6249557;28;20033;-73
2024/01/17 06:12:48;;;;;;;8.07;2.20;;;10.70;69.40;;;;;;6245009;28;20331;-73
2024/01/17 06:15:49;;;;;;;4.28;2.13;;;10.80;69.90;;;;;;6273747;28;20037;-73
2024/01/17 06:18:50;;;;;;;4.93;3.13;;;10.90;70.50;;;;;;6277359;28;20564;-71
2024/01/17 06:21:52;;;;;;;3.58;1.60;;;11.00;70.30;;;;;;6246034;28;20022;-72
2024/01/17 06:24:53;;;;;;;1.35;1.15;;;11.00;70.20;;;;;;6265243;28;20041;-73
2024/01/17 06:27:56;;;;;;;3.17;1.65;;;11.10;70.40;;;;;;6256095;28;20516;-72
2024/01/17 06:30:58;;;;;;;2.92;1.33;;;11.30;71.10;;;;;;6252194;28;20397;-72
2024/01/17 06:33:59;;;;;;;1.00;0.65;;;11.50;70.80;;;;;;6252006;28;20053;-73
2024/01/17 06:37:03;;;;;;;4.47;0.90;;;11.80;70.30;;;;;;6283481;28;20023;-72
2024/01/17 06:40:05;;;;;;;1.13;0.68;;;12.00;69.80;;;;;;6251239;28;20025;-72
2024/01/17 06:43:06;;;;;;;6.93;0.80;;;12.20;69.30;;;;;;6251986;28;20025;-70
2024/01/17 06:46:07;;;;;;;1.17;0.63;;;12.40;68.80;;;;;;6250443;28;20052;-71
2024/01/17 06:49:08;;;;;;;1.25;0.38;;;12.70;68.30;;;;;;6248539;28;20032;-72
2024/01/17 06:52:09;;;;;;;1.92;0.80;;;12.90;67.50;;;;;;6249741;28;20061;-72
2024/01/17 06:55:10;;;;;;;4.07;1.90;;;13.10;66.60;;;;;;6250021;28;20491;-73
2024/01/17 06:58:11;;;;;;;4.10;1.75;;;13.30;65.60;;;;;;6249794;28;20110;-72
2024/01/17 07:01:12;;;;;;;6.32;1.95;;;13.30;65.20;;;;;;6238446;28;20029;-72
2024/01/17 07:04:13;;;;;;;3.85;1.80;;;13.20;64.40;;;;;;6245153;28;20057;-72
2024/01/17 07:07:13;;;;;;;3.10;1.55;;;13.10;64.10;;;;;;6247314;28;20021;-72
2024/01/17 07:10:14;;;;;;;3.85;2.20;;;12.90;63.90;;;;;;6248487;28;20114;-72
2024/01/17 07:13:15;;;;;;;2.78;1.58;;;12.70;64.30;;;;;;6243421;28;20446;-72
2024/01/17 07:16:16;;;;;;;3.45;1.77;;;12.50;64.90;;;;;;6245479;28;20025;-73
2024/01/17 07:19:17;;;;;;;4.63;2.05;;;12.40;65.30;;;;;;6243025;28;20111;-72
2024/01/17 07:22:18;;;;;;;4.70;1.70;;;12.40;65.50;;;;;;6248451;28;20040;-72
2024/01/17 07:25:19;;;;;;;6.32;2.92;;;12.30;65.80;;;;;;6264311;28;20024;-71
2024/01/17 07:28:20;;;;;;;6.15;2.08;;;12.20;66.30;;;;;;6259173;28;20485;-72
2024/01/17 07:31:21;;;;;;;7.30;1.73;;;12.10;66.70;;;;;;6234880;28;20071;-71
2024/01/17 07:34:22;;;;;;;2.60;1.65;;;12.10;66.90;;;;;;6245530;28;20044;-72
2024/01/17 07:37:23;;;;;;;3.63;1.63;;;12.10;67.20;;;;;;6256940;28;20029;-72
2024/01/17 07:40:24;;;;;;;2.70;1.58;;;12.20;67.30;;;;;;6243598;28;20049;-71
2024/01/17 07:43:25;;;;;;;3.75;2.28;;;12.10;67.60;;;;;;6252659;28;20070;-72
2024/01/17 07:46:26;;;;;;;6.28;3.10;;;12.10;67.70;;;;;;6246519;28;20123;-72
2024/01/17 07:49:27;;;;;;;10.88;2.58;;;12.20;67.90;;;;;;6233487;28;20021;-72
2024/01/17 07:52:27;;;;;;;3.33;2.28;;;12.00;67.80;;;;;;6247017;28;20392;-72
2024/01/17 07:55:28;;;;;;;8.32;2.58;;;12.00;68.50;;;;;;6223770;28;20056;-72
2024/01/17 07:58:29;;;;;;;1.23;0.80;;;11.90;67.60;;;;;;6242730;28;20139;-71
2024/01/17 08:01:30;;;;;;;4.80;2.10;;;11.80;67.60;;;;;;6251979;28;20032;-71
2024/01/17 08:04:48;;;;;;;9.90;2.92;;;11.70;67.90;;;;;;6242227;28;20473;-71
2024/01/17 08:08:14;;;;;;;3.75;2.40;;;11.70;68.20;;;;;;6247154;28;20068;-71
2024/01/17 08:11:14;;;;;;;5.68;2.38;;;11.50;68.40;;;;;;6241018;28;20079;-73
2024/01/17 08:14:15;;;;;;;3.53;2.47;;;11.40;68.70;;;;;;6242218;28;20107;-73
2024/01/17 08:17:16;;;;;;;4.35;2.53;;;11.40;69.00;;;;;;6244765;28;20376;-72
2024/01/17 08:20:18;;;;;;;3.83;1.90;;;11.40;69.20;;;;;;6246812;28;20095;-72
2024/01/17 08:23:18;;;;;;;6.28;2.78;;;11.30;69.30;;;;;;6260614;28;20032;-72
2024/01/17 08:26:19;;;;;;;5.18;3.13;;;11.30;69.40;;;;;;6247012;28;20373;-72
2024/01/17 08:29:20;;;;;;;4.75;2.65;;;11.30;69.70;;;;;;6236321;28;20021;-72
2024/01/17 08:32:21;;;;;;;6.07;2.72;;;11.30;69.80;;;;;;6259566;28;20109;-72
2024/01/17 08:35:22;;;;;;;5.90;3.10;;;11.30;69.80;;;;;;6260144;28;20044;-73
2024/01/17 08:38:23;;;;;;;5.00;3.08;;;11.40;70.60;;;;;;6241782;28;20025;-72
2024/01/17 08:41:23;;;;;;;6.18;2.70;;;11.50;69.70;;;;;;6246569;28;20130;-71
2024/01/17 08:44:25;;;;;;;5.95;2.50;;;11.50;69.50;;;;;;6240887;28;20078;-72
2024/01/17 08:47:26;;;;;;;11.45;2.65;;;11.60;69.40;;;;;;6242207;28;20053;-71
2024/01/17 08:50:26;;;;;;;6.13;2.47;;;11.70;69.20;;;;;;6248551;28;20025;-70
2024/01/17 08:53:30;;;;;;;5.43;3.15;;;11.80;69.20;;;;;;6241045;28;20021;-73
2024/01/17 08:56:31;;;;;;;5.97;3.55;;;11.80;69.00;;;;;;6249737;28;20068;-72
2024/01/17 08:59:34;;;;;;;4.68;2.70;;;11.90;68.80;;;;;;6259663;28;20116;-70
2024/01/17 09:02:35;;;;;;;4.97;2.75;;;11.90;68.60;;;;;;6247998;28;20072;-71
2024/01/17 09:05:36;;;;;;;5.63;3.03;;;11.90;68.50;;;;;;6274000;28;20025;-72
2024/01/17 09:08:37;;;;;;;5.45;3.05;;;11.90;68.60;;;;;;6274820;28;20477;-72
2024/01/17 09:11:39;;;;;;;7.03;2.95;;;11.90;68.90;;;;;;6249193;28;20430;-72
2024/01/17 09:14:43;;;;;;;8.10;2.58;;;11.90;68.70;;;;;;6243135;28;20150;-71
2024/01/17 09:17:44;;;;;;;9.10;3.35;;;11.90;68.70;;;;;;6259476;28;20091;-71
2024/01/17 09:20:45;;;;;;;11.40;3.03;;;11.90;68.70;;;;;;6227144;28;20017;-71
2024/01/17 09:23:46;;;;;;;6.75;2.72;;;11.90;68.60;;;;;;6246835;28;20033;-72
2024/01/17 09:26:49;;;;;;;6.93;3.47;;;11.90;68.70;;;;;;6241130;28;20496;-73
2024/01/17 09:29:50;;;;;;;7.97;3.63;;;12.00;68.70;;;;;;6246539;28;20029;-72
2024/01/17 09:32:51;;;;;;;14.35;3.22;;;12.00;68.70;;;;;;6283014;28;21627;-72
2024/01/17 09:35:52;;;;;;;6.35;2.83;;;12.00;68.70;;;;;;6236866;28;20041;-72
2024/01/17 09:38:54;;;;;;;4.55;2.67;;;12.00;68.70;;;;;;6244069;28;20342;-71
2024/01/17 09:41:56;;;;;;;4.50;3.28;;;12.10;68.70;;;;;;6243983;28;20065;-72
2024/01/17 09:44:57;;;;;;;7.78;2.97;;;12.10;68.80;;;;;;6244743;28;20443;-72
2024/01/17 09:48:00;;;;;;;5.45;2.75;;;12.10;68.70;;;;;;6243374;28;20017;-73
2024/01/17 09:51:02;;;;;;;9.48;4.75;;;12.10;68.70;;;;;;6254375;28;20167;-70
2024/01/17 09:54:05;;;;;;;12.88;4.70;;;12.20;68.80;;;;;;6246908;28;20144;-72
2024/01/17 09:57:07;;;;;;;7.45;3.42;;;12.20;68.90;;;;;;6246692;28;20040;-72
2024/01/17 10:00:09;;;;;;;8.45;3.75;;;12.30;68.90;;;;;;6249273;28;20108;-71
2024/01/17 10:03:20;;;;;;;8.30;4.53;;;12.30;68.80;;;;;;6254972;28;20018;-72
2024/01/17 10:06:23;;;;;;;8.68;3.83;;;12.30;68.90;;;;;;6247070;28;20021;-71
2024/01/17 10:09:24;;;;;;;10.82;4.28;;;12.40;68.90;;;;;;6252063;28;20401;-71
2024/01/17 10:12:27;;;;;;;12.07;4.13;;;12.40;68.90;;;;;;6252413;28;20025;-72
2024/01/17 10:15:29;;;;;;;24.30;4.32;;;12.40;68.90;;;;;;6252241;28;20076;-72
2024/01/17 10:18:32;;;;;;;9.48;4.20;;;12.50;68.70;;;;;;6265701;28;20069;-72
2024/01/17 10:21:33;;;;;;;8.43;4.13;;;12.60;68.70;;;;;;6251372;28;20473;-71
2024/01/17 10:24:36;;;;;;;15.15;5.45;;;12.60;68.60;;;;;;6250024;28;20021;-72
2024/01/17 10:27:37;;;;;;;8.38;4.35;;;12.60;68.70;;;;;;6249443;28;20126;-72
2024/01/17 10:30:41;;;;;;;10.35;4.43;;;12.60;68.70;;;;;;6253187;28;20069;-71
2024/01/17 10:33:42;;;;;;;8.15;3.90;;;12.70;68.80;;;;;;6238582;28;20430;-72
2024/01/17 10:36:44;;;;;;;7.63;3.67;;;12.60;68.70;;;;;;6247417;28;20025;-71
2024/01/17 10:39:45;;;;;;;6.30;3.13;;;12.60;68.90;;;;;;6250296;28;20154;-72
2024/01/17 10:42:46;;;;;;;13.75;4.10;;;12.50;69.10;;;;;;6240014;28;20033;-71
2024/01/17 10:45:47;;;;;;;10.40;4.22;;;12.50;69.20;;;;;;6257566;28;20491;-71
2024/01/17 10:48:49;;;;;;;7.97;4.43;;;12.60;69.40;;;;;;6232672;28;20129;-71
2024/01/17 10:52:02;;;;;;;12.60;5.03;;;12.60;69.40;;;;;;6245137;28;20036;-72
2024/01/17 10:55:13;;;;;;;12.57;6.10;;;12.70;70.20;;;;;;6251772;28;20042;-73
2024/01/17 10:58:15;;;;;;;32.50;10.18;;;12.80;69.40;;;;;;6251156;28;20036;-73
2024/01/17 11:01:33;;;;;;;24.65;7.32;;;12.90;69.10;;;;;;6251539;28;20025;-73
2024/01/17 11:05:06;;;;;;;10.82;5.65;;;12.90;69.10;;;;;;6255396;28;20074;-71
2024/01/17 11:08:07;;;;;;;;;;;12.90;69.00;;;;;;6248785;28;20052;-72
2024/01/17 11:11:09;;;;;;;10.07;4.68;;;13.00;69.20;;;;;;6240630;28;19909;-72
2024/01/17 11:14:11;;;;;;;8.30;4.20;;;12.90;69.30;;;;;;6246851;28;20041;-73
2024/01/17 11:17:15;;;;;;;12.15;4.90;;;12.90;69.50;;;;;;6234630;28;20102;-72
2024/01/17 11:20:17;;;;;;;10.02;3.83;;;13.00;69.60;;;;;;6246524;28;20018;-72
2024/01/17 11:23:33;;;;;;;10.57;4.35;;;13.10;69.50;;;;;;6237637;28;20029;-72
2024/01/17 11:26:51;;;;;;;16.05;5.68;;;13.20;69.40;;;;;;6243221;28;20684;-73
2024/01/17 11:30:11;;;;;;;15.77;5.35;;;13.30;69.30;;;;;;6227123;28;20034;-73
2024/01/17 11:33:13;;;;;;;14.23;6.45;;;13.30;69.90;;;;;;6245764;28;20599;-71
2024/01/17 11:36:43;;;;;;;5.68;3.50;;;13.30;69.10;;;;;;6226684;28;20090;-72
2024/01/17 11:39:44;;;;;;;;;;;13.30;69.20;;;;;;6263434;28;20060;-71
2024/01/17 11:42:45;;;;;;;11.32;4.82;;;13.40;69.30;;;;;;6243681;28;20401;-73
2024/01/17 11:45:53;;;;;;;16.13;6.20;;;13.40;69.30;;;;;;6265014;28;20140;-74
2024/01/17 11:48:55;;;;;;;7.55;2.55;;;13.50;69.20;;;;;;6281638;28;20029;-73
2024/01/17 11:51:57;;;;;;;7.97;4.40;;;13.40;69.20;;;;;;6241180;28;20112;-73
2024/01/17 11:54:59;;;;;;;17.73;5.72;;;13.40;69.30;;;;;;6243803;28;20083;-71
2024/01/17 11:58:00;;;;;;;15.40;7.15;;;13.50;69.70;;;;;;6238502;28;20025;-73
2024/01/17 12:01:01;;;;;;;9.43;4.65;;;13.50;69.60;;;;;;6264316;28;20381;-73
2024/01/17 12:04:17;;;;;;;8.77;3.40;;;13.60;69.80;;;;;;6247566;28;20099;-72
2024/01/17 12:07:18;;;;;;;6.32;3.58;;;13.70;69.60;;;;;;6244323;28;20027;-72
2024/01/17 12:10:19;;;;;;;13.52;5.35;;;13.80;69.40;;;;;;6262534;28;20017;-72
2024/01/17 12:13:24;;;;;;;10.02;4.55;;;13.90;69.00;;;;;;6243465;28;20044;-72
2024/01/17 12:16:26;;;;;;;11.98;4.72;;;13.90;68.70;;;;;;6252440;28;20036;-71
2024/01/17 12:19:27;;;;;;;18.65;5.78;;;13.90;68.60;;;;;;6241211;28;20066;-72
2024/01/17 12:22:28;;;;;;;7.05;3.88;;;14.00;68.60;;;;;;6246499;28;20071;-72
2024/01/17 12:25:29;;;;;;;10.25;5.18;;;14.10;68.60;;;;;;6248271;28;20365;-71
2024/01/17 12:28:30;;;;;;;13.93;5.03;;;14.10;68.40;;;;;;6237978;28;20013;-72
2024/01/17 12:31:31;;;;;;;10.38;4.05;;;14.10;68.50;;;;;;6246491;28;20107;-72
2024/01/17 12:34:31;;;;;;;12.98;5.78;;;14.10;68.60;;;;;;6233695;28;20040;-72
2024/01/17 12:37:32;;;;;;;16.50;6.20;;;14.20;68.80;;;;;;6247866;28;20402;-71
2024/01/17 12:40:33;;;;;;;20.05;6.05;;;14.20;68.70;;;;;;6253395;28;20017;-71
2024/01/17 12:43:36;;;;;;;8.32;4.10;;;14.30;68.60;;;;;;6250818;28;20013;-73
2024/01/17 12:46:37;;;;;;;14.85;4.43;;;14.30;68.50;;;;;;6227896;28;20043;-70
2024/01/17 12:49:38;;;;;;;9.85;4.28;;;14.40;68.50;;;;;;6243589;28;20172;-72
2024/01/17 12:52:40;;;;;;;10.35;4.20;;;14.40;68.10;;;;;;6246376;28;20509;-72
2024/01/17 12:55:41;;;;;;;9.10;4.85;;;14.40;68.10;;;;;;6246151;28;20075;-72
2024/01/17 12:58:43;;;;;;;17.10;4.60;;;14.40;67.90;;;;;;6238430;28;20032;-72
2024/01/17 13:01:45;;;;;;;6.35;3.72;;;14.40;68.20;;;;;;6243446;28;20020;-72
2024/01/17 13:05:06;;;;;;;11.60;4.75;;;14.40;68.40;;;;;;6242424;28;20036;-74
2024/01/17 13:08:15;;;;;;;9.10;5.03;;;14.30;68.20;;;;;;6244281;28;20037;-73
2024/01/17 13:11:18;;;;;;;10.82;4.68;;;14.30;68.50;;;;;;6242163;28;20021;-72
2024/01/17 13:14:20;;;;;;;14.35;4.90;;;14.30;68.60;;;;;;6241162;28;20151;-72
2024/01/17 13:17:21;;;;;;;7.30;4.20;;;14.30;68.70;;;;;;6251334;28;20026;-72
2024/01/17 13:20:22;;;;;;;15.57;5.93;;;14.30;68.80;;;;;;6254808;28;20097;-74
2024/01/17 13:23:22;;;;;;;8.40;3.92;;;14.30;68.80;;;;;;6236086;28;20033;-72
2024/01/17 13:26:24;;;;;;;10.07;4.30;;;14.20;68.80;;;;;;6242828;28;20024;-73
2024/01/17 13:29:26;;;;;;;15.00;4.70;;;14.30;69.00;;;;;;6233365;28;20013;-73
2024/01/17 13:32:27;;;;;;;5.85;3.65;;;14.30;69.10;;;;;;6244647;28;20484;-73
2024/01/17 13:35:28;;;;;;;9.75;4.47;;;14.20;69.10;;;;;;6246377;28;20050;-73
2024/01/17 13:38:29;;;;;;;8.77;4.82;;;14.20;69.20;;;;;;6232108;28;20142;-72
2024/01/17 13:41:57;;;;;;;8.30;4.43;;;14.30;69.30;;;;;;6249969;28;20028;-72
2024/01/17 13:44:59;;;;;;;6.15;3.72;;;14.20;69.20;;;;;;6247183;28;20507;-72
2024/01/17 13:48:01;;;;;;;8.00;4.55;;;14.30;69.20;;;;;;6242555;28;20029;-72
2024/01/17 13:51:02;;;;;;;11.73;4.40;;;14.30;69.20;;;;;;6241956;28;20072;-71
2024/01/17 13:54:14;;;;;;;7.50;4.32;;;14.40;69.00;;;;;;6240094;28;20033;-72
2024/01/17 13:57:15;;;;;;;6.80;4.20;;;14.40;68.90;;;;;;6243229;28;20480;-72
2024/01/17 14:00:17;;;;;;;7.38;4.35;;;14.40;68.60;;;;;;6240882;28;20109;-72
2024/01/17 14:03:18;;;;;;;6.70;4.00;;;14.50;68.70;;;;;;6244964;28;20071;-73
2024/01/17 14:06:20;;;;;;;6.55;3.90;;;14.50;68.50;;;;;;6230519;28;20096;-71
2024/01/17 14:09:23;;;;;;;8.95;4.25;;;14.60;68.40;;;;;;6275127;28;20052;-72
2024/01/17 14:12:24;;;;;;;11.38;4.75;;;14.60;68.10;;;;;;6241152;28;20047;-71
2024/01/17 14:15:25;;;;;;;8.27;3.88;;;14.60;68.10;;;;;;6275144;28;20041;-72
2024/01/17 14:18:26;;;;;;;6.43;3.60;;;14.60;68.20;;;;;;6243658;28;20107;-71
2024/01/17 14:21:27;;;;;;;10.43;3.72;;;14.50;67.90;;;;;;6256361;28;20504;-72
2024/01/17 14:24:28;;;;;;;6.45;3.63;;;14.60;68.00;;;;;;6240758;28;20021;-72
2024/01/17 14:27:29;;;;;;;6.25;3.05;;;14.50;67.90;;;;;;6242979;28;20432;-73
2024/01/17 14:30:30;;;;;;;8.60;3.58;;;14.50;67.80;;;;;;6259081;28;20071;-72
2024/01/17 14:33:31;;;;;;;7.70;3.33;;;14.50;67.80;;;;;;6240575;28;20754;-72
2024/01/17 14:36:33;;;;;;;6.60;3.40;;;14.50;68.00;;;;;;6242219;28;20144;-74
2024/01/17 14:39:34;;;;;;;6.82;3.47;;;14.60;68.00;;;;;;6225086;28;20500;-72
2024/01/17 14:42:35;;;;;;;5.22;3.00;;;14.60;68.00;;;;;;6241534;28;20018;-71
2024/01/17 14:45:36;;;;;;;7.35;3.38;;;14.50;68.00;;;;;;6245402;28;20022;-73
2024/01/17 14:48:37;;;;;;;7.70;3.60;;;14.60;68.00;;;;;;6253379;28;20657;-73
2024/01/17 14:51:41;;;;;;;6.22;3.17;;;14.60;67.80;;;;;;6249434;28;20064;-71
2024/01/17 14:54:42;;;;;;;7.18;3.13;;;14.60;67.90;;;;;;6250717;28;20392;-72
2024/01/17 14:57:45;;;;;;;7.85;2.85;;;14.60;67.80;;;;;;6280918;28;20029;-73
2024/01/17 15:00:45;;;;;;;6.07;2.90;;;14.70;67.70;;;;;;6254448;28;20044;-73
2024/01/17 15:03:46;;;;;;;9.55;3.60;;;14.70;67.40;;;;;;6251779;28;20021;-72
2024/01/17 15:06:47;;;;;;;6.18;3.17;;;14.80;67.30;;;;;;6253394;28;20091;-71
2024/01/17 15:09:48;;;;;;;9.63;3.80;;;14.60;67.30;;;;;;6252533;28;20029;-73
2024/01/17 15:12:51;;;;;;;8.73;3.63;;;14.60;67.30;;;;;;6252178;28;20389;-73
2024/01/17 15:15:53;;;;;;;7.65;3.20;;;14.50;67.30;;;;;;6265702;28;20044;-73
2024/01/17 15:18:54;;;;;;;7.72;3.33;;;14.50;67.30;;;;;;6265356;28;20508;-71
2024/01/17 15:21:56;;;;;;;13.90;3.92;;;14.50;67.40;;;;;;6236175;28;20033;-72
2024/01/17 15:24:58;;;;;;;7.60;3.55;;;14.50;67.50;;;;;;6254580;28;20025;-72
2024/01/17 15:28:00;;;;;;;5.63;2.65;;;14.50;67.60;;;;;;6252343;28;20066;-72
2024/01/17 15:31:03;;;;;;;7.50;3.35;;;14.50;67.60;;;;;;6251583;28;20360;-72
2024/01/17 15:34:04;;;;;;;8.57;4.35;;;14.50;67.50;;;;;;6267100;28;20025;-72
2024/01/17 15:37:04;;;;;;;9.43;3.60;;;14.50;67.60;;;;;;6254960;28;20032;-71
2024/01/17 15:40:10;;;;;;;7.50;3.28;;;14.50;67.60;;;;;;6255132;28;20050;-72
2024/01/17 15:43:12;;;;;;;10.85;4.30;;;14.50;67.60;;;;;;6250721;28;20024;-73
2024/01/17 15:46:13;;;;;;;9.35;4.18;;;14.50;67.60;;;;;;6258853;28;20508;-72